Time;durP1;ratioP1;P1;durP2;ratioP2;P2;SDS_P1;SDS_P2;PMS_P1;PMS_P2;Temp;Humidity;BMP_temperature;BMP_pressure;BME280_temperature;BME280_humidity;BME280_pressure;Samples;Min_cycle;Max_cycle;Signal;HPM_P1;HPM_P2
2023/06/25 00:00:45;;;;;;;7.72;6.97;;;;;;;20.18;82.56;101797.63;5037394;28;20294;-75
2023/06/25 00:03:12;;;;;;;8.07;7.25;;;;;;;20.14;81.96;101801.53;5039492;28;20033;-75
2023/06/25 00:05:37;;;;;;;8.13;7.10;;;;;;;20.05;83.13;101788.75;5039571;28;20218;-75
2023/06/25 00:08:02;;;;;;;8.38;7.03;;;;;;;20.08;82.54;101789.38;5037660;28;20074;-74
2023/06/25 00:10:28;;;;;;;9.05;7.47;;;;;;;20.05;82.99;101796.84;5037355;28;20032;-75
2023/06/25 00:12:53;;;;;;;7.30;6.60;;;;;;;20.02;83.19;101789.84;5038474;28;20037;-75
2023/06/25 00:15:18;;;;;;;7.75;7.03;;;;;;;19.90;83.40;101794.34;5041021;28;20436;-74
2023/06/25 00:17:47;;;;;;;7.82;7.05;;;;;;;19.90;83.47;101797.03;5041458;28;20049;-77
2023/06/25 00:20:17;;;;;;;7.90;7.10;;;;;;;19.87;84.68;101791.00;5037417;28;20052;-77
2023/06/25 00:22:43;;;;;;;8.05;7.05;;;;;;;19.82;84.84;101785.94;5036551;28;20025;-73
2023/06/25 00:25:09;;;;;;;8.23;7.43;;;;;;;19.65;85.19;101781.81;5038252;28;20483;-73
2023/06/25 00:27:34;;;;;;;8.93;7.43;;;;;;;19.69;86.24;101784.25;5021808;28;20033;-71
2023/06/25 00:30:00;;;;;;;8.32;6.85;;;;;;;19.67;86.33;101780.81;5036966;28;20075;-72
2023/06/25 00:32:26;;;;;;;8.38;7.53;;;;;;;19.62;86.33;101775.75;5036416;28;20491;-78
2023/06/25 00:34:57;;;;;;;7.50;6.80;;;;;;;19.57;85.78;101780.59;5037430;28;20102;-77
2023/06/25 00:37:23;;;;;;;8.38;7.07;;;;;;;19.57;87.14;101777.91;5039356;28;20025;-75
2023/06/25 00:39:49;;;;;;;7.85;7.15;;;;;;;19.49;86.84;101777.63;5036189;28;20072;-77
2023/06/25 00:42:16;;;;;;;8.65;7.43;;;;;;;19.38;87.77;101776.53;5039754;28;20029;-77
2023/06/25 00:44:41;;;;;;;8.73;7.65;;;;;;;19.36;87.94;101773.13;5040232;28;20025;-71
2023/06/25 00:47:12;;;;;;;8.75;7.85;;;;;;;19.33;87.84;101770.63;5036748;28;20119;-75
2023/06/25 00:49:43;;;;;;;7.97;7.18;;;;;;;19.35;87.98;101771.41;5038858;28;20028;-73
2023/06/25 00:52:10;;;;;;;9.07;7.75;;;;;;;19.29;88.22;101766.44;5040174;28;20470;-76
2023/06/25 00:54:38;;;;;;;8.13;7.32;;;;;;;19.25;89.02;101762.22;5036150;28;20033;-75
2023/06/25 00:57:07;;;;;;;9.05;7.38;;;;;;;19.15;89.90;101763.88;5037708;28;20021;-72
2023/06/25 00:59:35;;;;;;;10.43;7.93;;;;;;;19.11;89.53;101759.69;5041306;28;20086;-76
2023/06/25 01:02:18;;;;;;;10.07;8.68;;;;;;;19.09;89.98;101765.16;5034072;28;20029;-71
2023/06/25 01:04:57;;;;;;;8.85;7.47;;;;;;;19.07;90.28;101750.09;5035738;28;20033;-74
2023/06/25 01:07:25;;;;;;;9.25;8.32;;;;;;;19.03;90.48;101751.28;5038415;28;20509;-75
2023/06/25 01:09:50;;;;;;;8.82;7.90;;;;;;;18.90;91.32;101741.38;5032833;28;20040;-73
2023/06/25 01:12:16;;;;;;;9.00;8.10;;;;;;;18.84;91.86;101752.56;5040357;28;20024;-77
2023/06/25 01:14:41;;;;;;;8.77;7.88;;;;;;;18.90;91.05;101746.75;5036918;28;20032;-81
2023/06/25 01:17:08;;;;;;;8.88;7.97;;;;;;;18.88;90.74;101750.53;5039888;28;20044;-77
2023/06/25 01:19:35;;;;;;;8.98;8.13;;;;;;;18.84;91.21;101746.31;5040171;28;20013;-76
2023/06/25 01:22:03;;;;;;;11.05;9.40;;;;;;;18.80;91.80;101744.81;5041087;28;20055;-76
2023/06/25 01:24:32;;;;;;;13.07;9.27;;;;;;;18.78;91.84;101744.94;5040939;28;20017;-73
2023/06/25 01:26:59;;;;;;;11.75;8.40;;;;;;;18.72;92.93;101737.25;5039678;28;20538;-77
2023/06/25 01:29:26;;;;;;;9.68;8.20;;;;;;;18.74;92.75;101745.25;5034778;28;20053;-73
2023/06/25 01:31:52;;;;;;;9.70;8.70;;;;;;;18.76;92.01;101738.78;5015690;28;20278;-76
2023/06/25 01:34:19;;;;;;;9.68;8.30;;;;;;;18.66;92.41;101734.97;5022214;28;20029;-79
2023/06/25 01:36:48;;;;;;;11.20;8.85;;;;;;;18.67;92.53;101729.47;5038864;28;20028;-77
2023/06/25 01:39:15;;;;;;;10.80;8.50;;;;;;;18.63;92.89;101730.66;5038701;28;20119;-74
2023/06/25 01:41:41;;;;;;;10.30;8.38;;;;;;;18.58;93.49;101726.56;5038821;28;20027;-72
2023/06/25 01:44:06;;;;;;;10.55;8.70;;;;;;;18.53;94.26;101715.25;5040277;28;20021;-74
2023/06/25 01:46:34;;;;;;;10.63;9.43;;;;;;;18.66;93.61;101721.50;5033781;28;20487;-70
2023/06/25 01:49:00;;;;;;;10.43;8.95;;;;;;;18.58;93.77;101708.56;5037541;28;20126;-75
2023/06/25 01:51:26;;;;;;;9.35;8.38;;;;;;;18.53;94.29;101709.88;5038981;28;20215;-75
2023/06/25 01:53:52;;;;;;;10.18;8.27;;;;;;;18.52;93.68;101705.41;5038052;28;20124;-76
2023/06/25 01:56:17;;;;;;;10.55;9.02;;;;;;;18.52;94.26;101706.31;5039096;28;20037;-75
2023/06/25 01:58:42;;;;;;;9.88;8.40;;;;;;;18.47;94.00;101707.59;5039040;28;20037;-77
2023/06/25 02:01:08;;;;;;;11.32;9.40;;;;;;;18.43;94.14;101704.25;5040668;28;20071;-76
2023/06/25 02:03:33;;;;;;;13.80;9.60;;;;;;;18.38;93.80;101701.88;5036410;28;20598;-74
2023/06/25 02:05:58;;;;;;;10.50;9.40;;;;;;;18.40;94.02;101699.94;5036150;28;20055;-77
2023/06/25 02:08:24;;;;;;;10.00;9.00;;;;;;;18.33;94.37;101692.38;5039023;28;20483;-77
2023/06/25 02:10:49;;;;;;;10.68;8.93;;;;;;;18.34;94.65;101697.66;5042351;28;20104;-72
2023/06/25 02:13:16;;;;;;;11.35;9.13;;;;;;;18.27;95.48;101682.06;5024946;28;20031;-72
2023/06/25 02:15:42;;;;;;;9.85;8.85;;;;;;;18.27;96.47;101691.00;5042832;28;20053;-73
2023/06/25 02:18:07;;;;;;;11.43;9.63;;;;;;;18.24;96.33;101685.81;5045266;28;20056;-75
2023/06/25 02:20:35;;;;;;;9.93;8.93;;;;;;;18.18;96.32;101680.84;5043272;28;20170;-72
2023/06/25 02:23:00;;;;;;;11.07;9.50;;;;;;;18.23;96.11;101683.25;5038746;28;20122;-74
2023/06/25 02:25:26;;;;;;;10.25;9.18;;;;;;;18.21;96.81;101680.63;5029176;28;20122;-76
2023/06/25 02:27:51;;;;;;;10.35;9.20;;;;;;;18.16;96.57;101678.25;5041227;28;20078;-77
2023/06/25 02:30:17;;;;;;;10.15;9.15;;;;;;;18.07;97.13;101673.53;5039181;28;20033;-75
2023/06/25 02:32:42;;;;;;;10.35;9.27;;;;;;;18.13;96.87;101674.91;5034779;28;20513;-74
2023/06/25 02:35:08;;;;;;;9.75;8.75;;;;;;;18.12;96.04;101665.97;5042272;28;20029;-76
2023/06/25 02:37:33;;;;;;;10.32;9.32;;;;;;;18.02;96.49;101662.22;5041036;28;20098;-75
2023/06/25 02:39:59;;;;;;;11.73;9.30;;;;;;;18.02;96.32;101664.03;5040990;28;20116;-76
2023/06/25 02:42:24;;;;;;;9.65;8.65;;;;;;;17.99;96.85;101657.03;5040230;28;20037;-70
2023/06/25 02:44:49;;;;;;;10.60;9.50;;;;;;;17.89;98.68;101654.09;5037517;28;20407;-75
2023/06/25 02:47:15;;;;;;;12.25;9.30;;;;;;;17.87;97.43;101656.03;5040201;28;20021;-73
2023/06/25 02:49:40;;;;;;;11.05;9.60;;;;;;;17.81;98.22;101656.47;5039372;28;20037;-74
2023/06/25 02:52:06;;;;;;;10.70;9.65;;;;;;;17.78;99.10;101653.97;5040080;28;20044;-77
2023/06/25 02:54:31;;;;;;;11.60;9.65;;;;;;;17.72;98.84;101657.03;5037969;28;20120;-76
2023/06/25 02:56:57;;;;;;;10.57;9.23;;;;;;;17.65;99.35;101653.91;5040582;28;20144;-70
2023/06/25 02:59:23;;;;;;;10.90;9.73;;;;;;;17.63;99.01;101653.13;5036261;28;20382;-75
2023/06/25 03:01:48;;;;;;;11.75;9.98;;;;;;;17.61;100.00;101643.47;5040721;28;20058;-71
2023/06/25 03:04:14;;;;;;;11.13;9.90;;;;;;;17.63;99.81;101650.44;5035541;28;20017;-75
2023/06/25 03:06:39;;;;;;;11.00;9.80;;;;;;;17.63;99.17;101645.06;5040712;28;20094;-75
2023/06/25 03:09:05;;;;;;;10.23;9.13;;;;;;;17.51;100.00;101651.28;5037449;28;20030;-70
2023/06/25 03:11:30;;;;;;;10.30;9.13;;;;;;;17.52;100.00;101658.41;5039724;28;20032;-76
2023/06/25 03:13:55;;;;;;;13.10;10.48;;;;;;;17.50;100.00;101646.88;5040153;28;20052;-75
2023/06/25 03:16:21;;;;;;;12.13;10.13;;;;;;;17.54;100.00;101648.38;5039389;28;20194;-71
2023/06/25 03:18:46;;;;;;;12.00;9.48;;;;;;;17.53;100.00;101646.66;5040170;28;20031;-75
2023/06/25 03:21:11;;;;;;;10.98;9.77;;;;;;;17.50;99.53;101646.00;5040421;28;20256;-75
2023/06/25 03:23:37;;;;;;;11.07;9.88;;;;;;;17.48;100.00;101647.94;5038276;28;20447;-72
2023/06/25 03:26:02;;;;;;;11.45;10.18;;;;;;;17.43;100.00;101641.03;5033818;28;20032;-76
2023/06/25 03:28:27;;;;;;;11.23;9.68;;;;;;;17.47;100.00;101646.19;5045291;28;20037;-74
2023/06/25 03:30:53;;;;;;;10.57;9.55;;;;;;;17.47;100.00;101643.50;5036954;28;20029;-72
2023/06/25 03:33:18;;;;;;;11.85;9.65;;;;;;;17.42;100.00;101639.28;5037073;28;20031;-75
2023/06/25 03:35:44;;;;;;;11.10;9.75;;;;;;;17.35;100.00;101643.38;5015896;28;20028;-75
2023/06/25 03:38:10;;;;;;;11.63;10.10;;;;;;;17.33;100.00;101642.59;5038826;28;20092;-75
2023/06/25 03:40:37;;;;;;;11.55;10.13;;;;;;;17.34;100.00;101633.56;5042352;28;20110;-77
2023/06/25 03:43:06;;;;;;;10.93;9.82;;;;;;;17.36;100.00;101638.88;5042945;28;20025;-75
2023/06/25 03:45:31;;;;;;;11.13;9.68;;;;;;;17.38;100.00;101640.47;5043339;28;20024;-73
2023/06/25 03:47:56;;;;;;;10.25;9.25;;;;;;;17.35;100.00;101632.63;5036668;28;20032;-73
2023/06/25 03:50:22;;;;;;;11.85;9.65;;;;;;;17.37;100.00;101638.75;5015099;28;20028;-71
2023/06/25 03:52:47;;;;;;;11.15;9.77;;;;;;;17.31;100.00;101632.94;5033109;28;20491;-72
2023/06/25 03:55:12;;;;;;;11.70;9.63;;;;;;;17.33;100.00;101636.38;5020515;28;20483;-77
2023/06/25 03:57:38;;;;;;;11.27;10.07;;;;;;;17.34;100.00;101635.41;5041570;28;20403;-72
2023/06/25 04:00:04;;;;;;;11.20;10.00;;;;;;;17.39;100.00;101633.28;5041343;28;20494;-72
2023/06/25 04:02:29;;;;;;;11.85;10.07;;;;;;;17.36;100.00;101628.97;5040520;28;20052;-78
2023/06/25 04:04:55;;;;;;;11.85;10.07;;;;;;;17.42;100.00;101631.22;5039255;28;20203;-75
2023/06/25 04:07:20;;;;;;;10.80;9.70;;;;;;;17.47;100.00;101628.22;5041434;28;20052;-74
2023/06/25 04:09:46;;;;;;;11.65;9.63;;;;;;;17.51;100.00;101639.66;5039840;28;20437;-74
2023/06/25 04:12:11;;;;;;;11.80;10.35;;;;;;;17.47;100.00;101632.75;5041104;28;20040;-77
2023/06/25 04:14:36;;;;;;;12.20;10.98;;;;;;;17.43;100.00;101632.97;5040898;28;20025;-75
2023/06/25 04:17:02;;;;;;;11.27;10.10;;;;;;;17.30;100.00;101618.59;5040843;28;20101;-77
2023/06/25 04:19:29;;;;;;;13.93;10.45;;;;;;;17.38;100.00;101632.41;5041097;28;20021;-73
2023/06/25 04:21:54;;;;;;;11.95;10.63;;;;;;;17.37;100.00;101630.69;5039405;28;20051;-76
2023/06/25 04:24:20;;;;;;;12.07;10.57;;;;;;;17.35;100.00;101629.06;5032055;28;20013;-74
2023/06/25 04:26:45;;;;;;;12.50;11.20;;;;;;;17.46;100.00;101629.19;5038231;28;20033;-78
2023/06/25 04:29:10;;;;;;;11.40;10.27;;;;;;;17.53;100.00;101635.03;5036359;28;20129;-75
2023/06/25 04:31:36;;;;;;;12.52;10.18;;;;;;;17.63;100.00;101634.28;5039373;28;20352;-74
2023/06/25 04:34:01;;;;;;;12.57;11.27;;;;;;;17.65;100.00;101628.81;5040294;28;20230;-78
2023/06/25 04:36:27;;;;;;;12.02;10.82;;;;;;;17.68;100.00;101633.97;5036091;28;20108;-75
2023/06/25 04:38:52;;;;;;;13.57;11.23;;;;;;;17.68;100.00;101626.78;5020398;28;20422;-76
2023/06/25 04:41:17;;;;;;;12.32;11.13;;;;;;;17.76;100.00;101626.28;5038204;28;20771;-74
2023/06/25 04:43:43;;;;;;;13.10;11.80;;;;;;;17.79;100.00;101634.16;5040054;28;20347;-74
2023/06/25 04:46:08;;;;;;;13.48;12.02;;;;;;;17.85;100.00;101633.75;5033531;28;20052;-73
2023/06/25 04:48:36;;;;;;;14.63;13.13;;;;;;;17.95;98.91;101625.88;5040426;28;20033;-78
2023/06/25 04:51:03;;;;;;;15.18;13.57;;;;;;;17.98;96.91;101631.06;5039817;28;20036;-78
2023/06/25 04:53:29;;;;;;;15.60;14.10;;;;;;;18.05;97.07;101632.34;5041281;28;20037;-73
2023/06/25 04:55:54;;;;;;;15.68;14.07;;;;;;;18.10;95.71;101630.22;5038929;28;20103;-75
2023/06/25 04:58:20;;;;;;;15.88;14.25;;;;;;;18.12;95.13;101630.09;5040588;28;20036;-79
2023/06/25 05:00:45;;;;;;;14.80;13.20;;;;;;;18.31;94.57;101633.22;5039600;28;20021;-75
2023/06/25 05:03:11;;;;;;;17.30;13.98;;;;;;;18.30;92.12;101631.47;5033921;28;20044;-72
2023/06/25 05:05:36;;;;;;;15.07;13.57;;;;;;;18.38;91.28;101626.41;5038037;28;20067;-76
2023/06/25 05:08:01;;;;;;;15.85;14.32;;;;;;;18.43;91.87;101626.06;5040559;28;20118;-77
2023/06/25 05:10:27;;;;;;;15.55;13.88;;;;;;;18.60;91.06;101627.56;5041414;28;20025;-72
2023/06/25 05:12:52;;;;;;;15.77;13.52;;;;;;;18.59;89.86;101623.13;5039106;28;20099;-78
2023/06/25 05:15:18;;;;;;;15.55;14.00;;;;;;;18.66;88.48;101627.13;5041044;28;20112;-76
2023/06/25 05:17:43;;;;;;;18.50;14.57;;;;;;;18.75;88.45;101631.03;5038336;28;20037;-75
2023/06/25 05:20:09;;;;;;;15.57;13.93;;;;;;;18.76;87.05;101630.03;5038154;28;20078;-77
2023/06/25 05:22:35;;;;;;;15.07;13.57;;;;;;;18.85;86.84;101632.94;5040435;28;20064;-71
2023/06/25 05:25:00;;;;;;;16.25;14.55;;;;;;;18.96;86.90;101623.19;5040981;28;20025;-79
2023/06/25 05:27:25;;;;;;;15.85;13.65;;;;;;;19.04;85.07;101635.13;5038431;28;20078;-76
2023/06/25 05:29:51;;;;;;;15.13;13.63;;;;;;;19.12;84.17;101618.38;5039437;28;20029;-76
2023/06/25 05:32:17;;;;;;;15.20;13.57;;;;;;;19.22;83.43;101624.81;5039503;28;20029;-76
2023/06/25 05:34:43;;;;;;;15.23;13.70;;;;;;;19.31;82.17;101625.94;5035757;28;20052;-75
2023/06/25 05:37:08;;;;;;;13.80;12.40;;;;;;;19.42;83.60;101623.31;5040342;28;20031;-77
2023/06/25 05:39:34;;;;;;;16.73;14.00;;;;;;;19.56;83.68;101625.84;5038536;28;20488;-78
2023/06/25 05:41:59;;;;;;;14.45;12.98;;;;;;;19.67;82.38;101627.72;5038132;28;20057;-75
2023/06/25 05:44:26;;;;;;;14.48;12.98;;;;;;;19.75;81.11;101624.44;5041607;28;20025;-75
2023/06/25 05:46:51;;;;;;;14.75;13.02;;;;;;;19.88;79.76;101626.06;5037188;28;20020;-78
2023/06/25 05:49:17;;;;;;;14.85;13.27;;;;;;;20.01;78.11;101614.31;5026124;28;20208;-75
2023/06/25 05:51:42;;;;;;;13.82;12.43;;;;;;;20.15;78.78;101624.91;5041928;28;20556;-74
2023/06/25 05:54:07;;;;;;;14.88;11.90;;;;;;;20.29;77.40;101624.66;5038698;28;20079;-78
2023/06/25 05:56:33;;;;;;;16.65;12.52;;;;;;;20.44;75.78;101619.00;5039744;28;20111;-78
2023/06/25 05:58:58;;;;;;;13.23;11.15;;;;;;;20.59;74.97;101610.56;5043811;28;20039;-73
2023/06/25 06:01:25;;;;;;;13.35;11.15;;;;;;;20.64;73.57;101599.34;5037050;28;20020;-77
2023/06/25 06:03:51;;;;;;;14.02;11.38;;;;;;;20.83;73.36;101605.00;5035510;28;20043;-74
2023/06/25 06:06:16;;;;;;;11.40;10.23;;;;;;;21.07;72.00;101610.22;5033473;28;20024;-74
2023/06/25 06:08:42;;;;;;;11.75;10.60;;;;;;;21.26;69.31;101614.09;5040648;28;20025;-74
2023/06/25 06:11:07;;;;;;;11.52;10.35;;;;;;;21.36;67.29;101613.25;5042435;28;20443;-76
2023/06/25 06:13:32;;;;;;;11.50;10.30;;;;;;;21.52;67.19;101611.91;5039876;28;20169;-79
2023/06/25 06:15:58;;;;;;;11.60;10.38;;;;;;;21.66;66.19;101608.91;5039332;28;20032;-73
2023/06/25 06:18:23;;;;;;;12.15;9.90;;;;;;;21.96;66.25;101608.09;5042321;28;20029;-73
2023/06/25 06:20:49;;;;;;;11.30;9.52;;;;;;;22.14;65.86;101611.09;5040909;28;20120;-76
2023/06/25 06:23:15;;;;;;;10.43;9.30;;;;;;;22.37;64.81;101618.06;5043731;28;20037;-77
2023/06/25 06:25:40;;;;;;;11.00;9.63;;;;;;;22.51;64.54;101618.69;5041725;28;20399;-79
2023/06/25 06:28:06;;;;;;;13.38;8.88;;;;;;;22.82;64.16;101612.25;5042777;28;20081;-72
2023/06/25 06:30:31;;;;;;;10.05;7.93;;;;;;;23.16;63.30;101611.91;5042274;28;20045;-79
2023/06/25 06:32:56;;;;;;;9.82;8.27;;;;;;;23.39;62.45;101615.19;5036713;28;20079;-73
2023/06/25 06:35:22;;;;;;;10.35;8.52;;;;;;;23.52;59.41;101617.63;5025255;28;20032;-74
2023/06/25 06:37:47;;;;;;;10.02;7.80;;;;;;;23.76;59.43;101620.78;5042346;28;20422;-75
2023/06/25 06:40:13;;;;;;;9.77;7.63;;;;;;;23.97;58.15;101615.16;5042160;28;20044;-79
2023/06/25 06:42:38;;;;;;;8.80;7.63;;;;;;;24.13;57.97;101622.72;5043044;28;20025;-78
2023/06/25 06:45:03;;;;;;;8.98;7.60;;;;;;;24.15;55.38;101612.53;5043282;28;20025;-76
2023/06/25 06:47:29;;;;;;;9.98;7.88;;;;;;;24.32;55.36;101619.06;5041409;28;20087;-75
2023/06/25 06:49:54;;;;;;;10.57;8.60;;;;;;;24.47;54.21;101612.16;5033734;28;20188;-72
2023/06/25 06:52:24;;;;;;;9.90;8.20;;;;;;;24.57;53.50;101612.13;5038156;28;20232;-75
2023/06/25 06:54:50;;;;;;;10.18;7.72;;;;;;;24.80;55.10;101610.72;5039395;28;20098;-76
2023/06/25 06:57:15;;;;;;;10.05;7.82;;;;;;;25.08;54.08;101606.13;5041604;28;20463;-77
2023/06/25 06:59:41;;;;;;;8.43;7.53;;;;;;;25.29;53.31;101605.84;5042752;28;20021;-76
2023/06/25 07:02:06;;;;;;;9.45;8.27;;;;;;;25.42;52.61;101604.59;5038303;28;20506;-71
2023/06/25 07:04:31;;;;;;;9.98;8.77;;;;;;;25.58;52.05;101601.97;5041362;28;20057;-78
2023/06/25 07:06:57;;;;;;;9.82;8.07;;;;;;;25.75;51.60;101606.56;5039263;28;20424;-77
2023/06/25 07:09:25;;;;;;;9.80;8.43;;;;;;;25.90;51.45;101608.75;5041382;28;20039;-75
2023/06/25 07:11:51;;;;;;;10.75;8.25;;;;;;;26.05;52.14;101604.44;5038121;28;20025;-77
2023/06/25 07:14:16;;;;;;;9.80;8.60;;;;;;;26.13;50.92;101607.22;5039838;28;20240;-78
2023/06/25 07:16:41;;;;;;;10.85;8.65;;;;;;;26.17;51.32;101605.88;5038989;28;20099;-73
2023/06/25 07:19:07;;;;;;;10.63;8.73;;;;;;;26.51;49.90;101610.50;5032793;28;20021;-76
2023/06/25 07:21:33;;;;;;;9.27;8.38;;;;;;;26.65;50.07;101603.56;5042584;28;20408;-73
2023/06/25 07:23:58;;;;;;;11.48;8.05;;;;;;;26.84;50.28;101608.75;5035820;28;20022;-74
2023/06/25 07:26:23;;;;;;;9.60;7.88;;;;;;;27.13;49.49;101613.81;5041315;28;20075;-75
2023/06/25 07:28:49;;;;;;;8.95;7.75;;;;;;;27.42;49.47;101607.88;5038613;28;20033;-76
2023/06/25 07:31:14;;;;;;;10.18;9.18;;;;;;;27.42;47.60;101609.72;5023781;28;20106;-75
2023/06/25 07:33:40;;;;;;;9.43;8.52;;;;;;;27.79;47.83;101604.63;5040443;28;20060;-74
2023/06/25 07:36:05;;;;;;;9.63;8.38;;;;;;;28.11;47.34;101610.25;5037735;28;20021;-74
2023/06/25 07:38:30;;;;;;;10.43;8.75;;;;;;;28.34;44.74;101597.50;5023231;28;20029;-76
2023/06/25 07:40:56;;;;;;;10.80;8.15;;;;;;;28.51;45.58;101592.88;5040829;28;20044;-75
2023/06/25 07:43:21;;;;;;;8.85;7.93;;;;;;;28.84;44.75;101592.69;5040856;28;20417;-72
2023/06/25 07:45:46;;;;;;;8.85;7.78;;;;;;;29.67;43.92;101598.31;5037875;28;20037;-78
2023/06/25 07:48:12;;;;;;;8.88;7.20;;;;;;;29.71;42.55;101599.66;5038040;28;20036;-73
2023/06/25 07:50:37;;;;;;;8.45;7.18;;;;;;;29.96;41.77;101599.44;5041031;28;20021;-75
2023/06/25 07:53:03;;;;;;;7.88;6.47;;;;;;;30.58;41.07;101593.59;5041902;28;20044;-77
2023/06/25 07:55:28;;;;;;;9.10;7.20;;;;;;;30.98;39.99;101596.88;5041960;28;20040;-74
2023/06/25 07:57:53;;;;;;;7.40;5.97;;;;;;;31.57;38.65;101591.16;5021773;28;20296;-72
2023/06/25 08:00:19;;;;;;;7.45;6.18;;;;;;;32.05;37.32;101599.59;5040364;28;20020;-76
2023/06/25 08:02:44;;;;;;;7.03;6.00;;;;;;;32.49;36.59;101592.88;5034800;28;20033;-74
2023/06/25 08:05:10;;;;;;;6.63;5.32;;;;;;;32.67;35.76;101592.31;5040407;28;20506;-72
2023/06/25 08:07:39;;;;;;;5.70;5.20;;;;;;;33.48;35.53;101584.06;5039406;28;20107;-74
2023/06/25 08:10:05;;;;;;;6.85;5.53;;;;;;;33.72;33.40;101586.19;5040854;28;20506;-74
2023/06/25 08:12:30;;;;;;;6.25;5.60;;;;;;;33.98;33.49;101584.50;5042273;28;20029;-74
2023/06/25 08:14:56;;;;;;;9.52;8.43;;;;;;;34.39;32.66;101584.19;5041714;28;20128;-74
2023/06/25 08:17:21;;;;;;;6.50;5.00;;;;;;;34.54;31.67;101585.91;5034662;28;20119;-74
2023/06/25 08:19:46;;;;;;;5.97;5.45;;;;;;;34.78;31.33;101587.03;5037842;28;20112;-72
2023/06/25 08:22:12;;;;;;;5.00;4.60;;;;;;;35.00;30.28;101582.91;5036137;28;20028;-75
2023/06/25 08:24:37;;;;;;;5.32;4.82;;;;;;;35.51;30.09;101586.63;5041166;28;20021;-71
2023/06/25 08:27:03;;;;;;;5.30;4.80;;;;;;;36.07;29.59;101578.25;5040758;28;20028;-74
2023/06/25 08:29:29;;;;;;;5.93;4.68;;;;;;;36.37;29.05;101583.88;5018118;28;20036;-70
2023/06/25 08:31:54;;;;;;;5.47;4.70;;;;;;;36.66;28.34;101581.41;5037600;28;20037;-73
2023/06/25 08:34:20;;;;;;;5.85;5.30;;;;;;;37.04;27.07;101581.13;5040934;28;20402;-78
2023/06/25 08:36:45;;;;;;;6.47;5.10;;;;;;;37.08;27.16;101578.72;5040539;28;20056;-75
2023/06/25 08:39:11;;;;;;;5.43;4.93;;;;;;;37.37;25.67;101571.44;5038073;28;20098;-74
2023/06/25 08:41:36;;;;;;;4.63;4.20;;;;;;;37.55;26.32;101568.59;5040810;28;20104;-74
2023/06/25 08:44:02;;;;;;;4.53;4.13;;;;;;;37.59;25.66;101574.53;5023327;28;20021;-76
2023/06/25 08:46:28;;;;;;;5.53;4.30;;;;;;;37.84;24.92;101574.31;5037404;28;21031;-75
2023/06/25 08:48:54;;;;;;;4.95;4.55;;;;;;;37.51;24.46;101563.78;5037163;28;20518;-72
2023/06/25 08:51:24;;;;;;;5.45;4.40;;;;;;;37.43;24.76;101566.91;5040105;28;20237;-77
2023/06/25 08:53:50;;;;;;;4.63;4.22;;;;;;;37.41;24.87;101569.06;5032330;28;20132;-72
2023/06/25 08:56:19;;;;;;;5.32;4.30;;;;;;;37.41;24.71;101561.56;5033314;28;20558;-75
2023/06/25 08:58:45;;;;;;;4.90;4.50;;;;;;;37.36;24.35;101570.59;5033382;28;20040;-75
2023/06/25 09:01:12;;;;;;;5.18;4.68;;;;;;;37.75;25.14;101567.38;5032690;28;20483;-75
2023/06/25 09:03:41;;;;;;;5.72;5.22;;;;;;;38.33;24.12;101566.53;5033130;28;20029;-71
2023/06/25 09:06:15;;;;;;;4.90;4.40;;;;;;;39.04;23.66;101575.50;5034704;28;20029;-74
2023/06/25 09:08:42;;;;;;;4.78;4.38;;;;;;;38.96;22.40;101561.97;5018540;28;20167;-76
2023/06/25 09:11:09;;;;;;;5.82;4.50;;;;;;;38.99;22.08;101567.06;5035804;28;20020;-72
2023/06/25 09:13:35;;;;;;;4.50;4.10;;;;;;;39.03;22.08;101562.69;5037147;28;20028;-73
2023/06/25 09:16:02;;;;;;;4.63;4.18;;;;;;;38.86;22.89;101571.84;5039440;28;20171;-73
2023/06/25 09:18:31;;;;;;;4.57;4.18;;;;;;;39.08;22.58;101569.19;5039783;28;20531;-75
2023/06/25 09:21:04;;;;;;;4.63;4.25;;;;;;;39.79;22.91;101552.03;5035147;28;20028;-75
2023/06/25 09:23:29;;;;;;;4.57;4.10;;;;;;;40.42;20.94;101564.63;5033518;28;20052;-76
2023/06/25 09:25:56;;;;;;;4.40;4.00;;;;;;;40.99;21.99;101560.56;5039271;28;20362;-72
2023/06/25 09:28:22;;;;;;;4.70;4.22;;;;;;;41.00;20.49;101553.88;5037628;28;20036;-76
2023/06/25 09:30:47;;;;;;;4.78;4.18;;;;;;;41.77;20.09;101555.38;5037896;28;20513;-72
2023/06/25 09:33:13;;;;;;;4.90;4.22;;;;;;;42.13;19.57;101561.19;5043080;28;20044;-74
2023/06/25 09:35:39;;;;;;;5.10;4.65;;;;;;;42.21;19.02;101555.09;5041933;28;20165;-74
2023/06/25 09:38:05;;;;;;;7.22;6.57;;;;;;;42.22;18.72;101559.56;5034422;28;20458;-74
2023/06/25 09:40:31;;;;;;;5.25;4.10;;;;;;;41.76;18.99;101551.75;5039400;28;20039;-72
2023/06/25 09:42:58;;;;;;;4.40;4.00;;;;;;;42.08;19.10;101553.63;5039384;28;20480;-72
2023/06/25 09:45:25;;;;;;;4.50;4.10;;;;;;;42.74;18.42;101547.50;5042633;28;20063;-74
2023/06/25 09:47:52;;;;;;;4.00;3.70;;;;;;;43.10;18.27;101550.34;5039560;28;20487;-73
2023/06/25 09:50:21;;;;;;;4.70;4.20;;;;;;;42.96;18.56;101547.25;5042158;28;20090;-72
2023/06/25 09:52:55;;;;;;;5.15;4.25;;;;;;;42.71;18.67;101542.44;5041950;28;20040;-73
2023/06/25 09:55:21;;;;;;;4.70;4.30;;;;;;;42.26;18.49;101543.94;5036407;28;20137;-73
2023/06/25 09:57:48;;;;;;;4.65;4.25;;;;;;;42.26;18.42;101535.56;5038549;28;20059;-73
2023/06/25 10:00:15;;;;;;;4.63;4.20;;;;;;;42.69;18.91;101545.53;5035710;28;20026;-75
2023/06/25 10:02:41;;;;;;;5.05;4.00;;;;;;;43.30;18.42;101532.72;5038027;28;20021;-72
2023/06/25 10:05:06;;;;;;;5.50;5.00;;;;;;;43.69;18.01;101530.19;5040289;28;20281;-75
2023/06/25 10:07:32;;;;;;;4.97;4.47;;;;;;;44.29;17.15;101530.31;5039115;28;20033;-73
2023/06/25 10:09:57;;;;;;;5.65;5.05;;;;;;;44.69;16.96;101535.72;5041613;28;20070;-73
2023/06/25 10:12:23;;;;;;;4.50;4.20;;;;;;;44.86;16.31;101538.16;5043812;28;20095;-75
2023/06/25 10:14:49;;;;;;;4.57;4.25;;;;;;;45.07;16.96;101535.22;5042720;28;20036;-72
2023/06/25 10:17:14;;;;;;;4.63;4.22;;;;;;;45.05;16.12;101531.84;5039051;28;20029;-74
2023/06/25 10:19:52;;;;;;;4.63;4.05;;;;;;;44.96;16.53;101529.63;5032227;28;20040;-72
2023/06/25 10:22:22;;;;;;;4.40;4.00;;;;;;;45.00;17.25;101529.06;5041908;28;20357;-76
2023/06/25 10:24:49;;;;;;;4.63;4.22;;;;;;;45.05;16.30;101526.22;5037599;28;20216;-73
2023/06/25 10:27:26;;;;;;;4.15;3.75;;;;;;;45.52;16.68;101525.53;5040520;28;20029;-72
2023/06/25 10:29:53;;;;;;;4.45;4.05;;;;;;;46.14;15.91;101511.63;5036318;28;20028;-75
2023/06/25 10:32:27;;;;;;;4.60;4.20;;;;;;;46.21;16.04;101514.94;5037535;28;20033;-72
2023/06/25 10:34:59;;;;;;;4.03;3.70;;;;;;;46.12;15.43;101505.47;5038585;28;20055;-76
2023/06/25 10:37:28;;;;;;;;;;;;;;;47.47;15.24;101518.06;5040234;28;20532;-75
2023/06/25 10:40:04;;;;;;;4.18;3.85;;;;;;;45.95;15.60;101509.63;5037417;28;20012;-75
2023/06/25 10:42:31;;;;;;;4.75;4.35;;;;;;;45.65;15.15;101507.09;5035729;28;20078;-72
2023/06/25 10:44:57;;;;;;;8.25;4.70;;;;;;;46.22;15.69;101499.72;5032532;28;20564;-74
2023/06/25 10:47:22;;;;;;;4.30;3.95;;;;;;;46.54;14.49;101506.59;5034230;28;20519;-74
2023/06/25 10:49:47;;;;;;;4.07;3.70;;;;;;;46.83;14.53;101498.84;5039657;28;20027;-75
2023/06/25 10:52:13;;;;;;;5.53;4.05;;;;;;;46.51;14.68;101501.56;5013638;28;20043;-74
2023/06/25 10:54:39;;;;;;;4.60;4.05;;;;;;;46.44;14.85;101496.31;4999151;28;20104;-72
2023/06/25 10:57:10;;;;;;;4.82;4.05;;;;;;;46.43;15.06;101492.66;4997478;28;20113;-73
2023/06/25 10:59:36;;;;;;;4.97;4.53;;;;;;;46.05;14.87;101485.28;5001197;28;20541;-74
2023/06/25 11:02:18;;;;;;;4.57;4.18;;;;;;;46.21;15.14;101488.78;4994179;28;20034;-77
2023/06/25 11:04:50;;;;;;;4.85;4.45;;;;;;;46.64;14.22;101484.75;4998754;28;20033;-76
2023/06/25 11:07:15;;;;;;;4.85;4.45;;;;;;;46.46;14.43;101487.56;4993548;28;20034;-74
2023/06/25 11:09:42;;;;;;;4.97;4.57;;;;;;;46.82;13.54;101480.25;5002807;28;20092;-75
2023/06/25 11:12:07;;;;;;;5.70;4.10;;;;;;;46.66;14.04;101478.84;5000386;28;20554;-76
2023/06/25 11:14:33;;;;;;;4.28;3.95;;;;;;;47.03;13.96;101479.94;5000375;28;20105;-72